createdAt,value
2018-07-17T00:00:23.062Z,18.40
2018-07-17T00:02:50.888Z,18.30
2018-07-17T00:05:18.671Z,18.40
2018-07-17T00:07:46.440Z,18.30
2018-07-17T00:10:14.232Z,18.30
2018-07-17T00:12:42.044Z,18.40
2018-07-17T00:15:09.856Z,18.40
2018-07-17T00:17:37.677Z,18.30
2018-07-17T00:20:05.495Z,18.30
2018-07-17T00:22:33.277Z,18.20
2018-07-17T00:25:01.059Z,18.20
2018-07-17T00:27:28.865Z,18.10
2018-07-17T00:29:56.655Z,18.10
2018-07-17T00:32:24.453Z,18.00
2018-07-17T00:34:52.243Z,18.00
2018-07-17T00:37:20.073Z,17.90
2018-07-17T00:39:47.879Z,17.90
2018-07-17T00:42:16.678Z,17.90
2018-07-17T00:44:44.489Z,18.00
2018-07-17T00:47:12.272Z,18.10
2018-07-17T00:49:40.100Z,18.00
2018-07-17T00:52:07.960Z,18.00
2018-07-17T00:54:35.829Z,17.80
2018-07-17T00:57:03.616Z,17.80
2018-07-17T00:59:31.376Z,17.60
2018-07-17T01:02:04.799Z,17.60
2018-07-17T01:04:39.206Z,17.50
2018-07-17T01:07:12.551Z,17.50
2018-07-17T01:09:45.844Z,17.40
2018-07-17T01:12:13.118Z,17.30
2018-07-17T01:15:48.111Z,17.20
2018-07-17T01:18:15.953Z,17.10
2018-07-17T01:20:44.749Z,17.10
2018-07-17T01:23:12.525Z,17.20
2018-07-17T01:25:40.300Z,17.20
2018-07-17T01:28:08.105Z,17.10
2018-07-17T01:30:35.891Z,17.10
2018-07-17T01:33:03.705Z,17.10
2018-07-17T01:35:31.500Z,17.00
2018-07-17T01:37:59.269Z,17.00
2018-07-17T01:40:27.103Z,17.00
2018-07-17T01:42:54.898Z,17.00
2018-07-17T01:45:22.732Z,17.00
2018-07-17T01:47:50.638Z,17.10
2018-07-17T01:50:18.424Z,17.10
2018-07-17T01:52:46.282Z,17.10
2018-07-17T01:55:14.083Z,17.20
2018-07-17T01:57:41.921Z,17.10
2018-07-17T02:00:09.760Z,17.20
2018-07-17T02:02:37.592Z,17.10
2018-07-17T02:05:05.541Z,17.10
2018-07-17T02:07:33.315Z,17.00
2018-07-17T02:10:01.140Z,16.90
2018-07-17T02:12:28.960Z,16.80
2018-07-17T02:14:56.838Z,16.80
2018-07-17T02:17:25.703Z,16.70
2018-07-17T02:19:53.529Z,16.70
2018-07-17T02:22:21.362Z,16.60
2018-07-17T02:24:49.244Z,16.60
2018-07-17T02:27:17.024Z,16.60
2018-07-17T02:29:45.763Z,16.50
2018-07-17T02:32:13.632Z,16.40
2018-07-17T02:34:42.489Z,16.40
2018-07-17T02:37:10.316Z,16.30
2018-07-17T02:39:39.129Z,16.20
2018-07-17T02:42:07.091Z,16.20
2018-07-17T02:44:34.870Z,16.20
2018-07-17T02:47:02.660Z,16.10
2018-07-17T02:49:30.523Z,16.10
2018-07-17T02:51:58.299Z,16.10
2018-07-17T02:54:26.154Z,16.10
2018-07-17T02:56:54.998Z,16.10
2018-07-17T02:59:22.890Z,16.10
2018-07-17T03:01:51.818Z,16.10
2018-07-17T03:04:20.275Z,16.10
2018-07-17T03:06:48.186Z,16.00
2018-07-17T03:09:16.044Z,16.00
2018-07-17T03:11:44.898Z,15.90
2018-07-17T03:14:12.739Z,15.90
2018-07-17T03:16:40.575Z,15.90
2018-07-17T03:19:08.397Z,15.80
2018-07-17T03:21:36.263Z,15.80
2018-07-17T03:24:04.092Z,15.80
2018-07-17T03:26:31.945Z,15.70
2018-07-17T03:28:59.867Z,15.70
2018-07-17T03:31:27.642Z,15.70
2018-07-17T03:33:55.433Z,15.70
2018-07-17T03:36:23.292Z,15.60
2018-07-17T03:38:51.059Z,15.60
2018-07-17T03:41:18.875Z,15.60
2018-07-17T03:43:46.735Z,15.50
2018-07-17T03:46:14.524Z,15.40
2018-07-17T03:48:42.352Z,15.40
2018-07-17T03:51:10.153Z,15.30
2018-07-17T03:53:39.037Z,15.10
2018-07-17T03:56:06.914Z,15.00
2018-07-17T03:58:34.770Z,15.10
2018-07-17T04:01:02.643Z,15.00
2018-07-17T04:03:30.478Z,15.00
2018-07-17T04:05:59.272Z,15.00
2018-07-17T04:08:27.048Z,15.00
2018-07-17T04:10:54.934Z,15.00
2018-07-17T04:13:22.746Z,15.00
2018-07-17T04:15:50.617Z,15.10
2018-07-17T04:18:18.540Z,15.20
2018-07-17T04:20:46.373Z,15.30
2018-07-17T04:23:14.191Z,15.30
2018-07-17T04:25:42.049Z,15.40
2018-07-17T04:28:09.855Z,15.40
2018-07-17T04:30:37.637Z,15.50
2018-07-17T04:33:07.444Z,15.60
2018-07-17T04:35:35.317Z,15.70
2018-07-17T04:38:03.164Z,15.70
2018-07-17T04:40:31.026Z,15.80
2018-07-17T04:42:58.849Z,15.90
2018-07-17T04:45:26.632Z,16.00
2018-07-17T04:47:54.459Z,16.10
2018-07-17T04:50:22.249Z,16.30
2018-07-17T04:52:51.145Z,16.40
2018-07-17T04:55:19.116Z,16.60
2018-07-17T04:57:46.910Z,16.70
2018-07-17T05:00:14.739Z,17.00
2018-07-17T05:02:42.553Z,17.20
2018-07-17T05:05:11.380Z,17.50
2018-07-17T05:07:39.222Z,17.60
2018-07-17T05:10:07.280Z,17.90
2018-07-17T05:12:35.066Z,17.90
2018-07-17T05:15:03.073Z,18.00
2018-07-17T05:17:30.933Z,18.20
2018-07-17T05:19:58.759Z,18.10
2018-07-17T05:22:26.695Z,18.20
2018-07-17T05:24:54.513Z,18.20
2018-07-17T05:27:22.392Z,18.20
2018-07-17T05:29:50.240Z,18.40
2018-07-17T05:32:18.089Z,18.40
2018-07-17T05:34:45.886Z,18.40
2018-07-17T05:37:13.748Z,18.40
2018-07-17T05:39:41.656Z,18.30
2018-07-17T05:42:09.480Z,18.30
2018-07-17T05:44:37.276Z,18.30
2018-07-17T05:47:05.035Z,18.20
2018-07-17T05:56:15.894Z,18.00
2018-07-17T05:58:43.703Z,18.50
2018-07-17T06:01:11.569Z,18.50
2018-07-17T06:03:40.568Z,18.60
2018-07-17T06:06:08.460Z,18.70
2018-07-17T06:08:38.412Z,19.00
2018-07-17T06:11:06.357Z,19.10
2018-07-17T06:13:34.381Z,19.20
2018-07-17T06:16:02.277Z,19.30
2018-07-17T06:18:30.141Z,19.50
2018-07-17T06:20:57.952Z,19.60
2018-07-17T06:23:25.816Z,19.90
2018-07-17T06:25:53.732Z,20.00
2018-07-17T06:28:21.634Z,20.30
2018-07-17T06:30:50.485Z,20.60
2018-07-17T06:33:18.398Z,20.50
2018-07-17T06:35:46.289Z,20.60
2018-07-17T06:38:14.158Z,20.80
2018-07-17T06:40:42.049Z,21.20
2018-07-17T06:43:09.865Z,21.50
2018-07-17T06:45:38.709Z,21.50
2018-07-17T06:48:06.572Z,21.50
2018-07-17T06:50:34.526Z,21.50
2018-07-17T06:53:02.285Z,21.60
2018-07-17T06:55:30.109Z,21.80
2018-07-17T06:57:58.029Z,21.70
2018-07-17T07:00:25.870Z,21.80
2018-07-17T07:02:53.757Z,22.20
2018-07-17T07:05:21.669Z,22.20
2018-07-17T07:07:49.484Z,22.50
2018-07-17T07:10:17.234Z,22.60
2018-07-17T07:12:45.022Z,22.30
2018-07-17T07:15:12.935Z,22.30
2018-07-17T07:17:40.843Z,22.10
2018-07-17T07:20:08.826Z,22.20
2018-07-17T07:22:36.780Z,22.30
2018-07-17T07:25:04.647Z,22.50
2018-07-17T07:27:32.517Z,22.70
2018-07-17T07:30:01.415Z,22.70
2018-07-17T07:32:29.326Z,22.80
2018-07-17T07:34:57.215Z,22.90
2018-07-17T07:37:25.200Z,23.10
2018-07-17T07:39:53.107Z,23.30
2018-07-17T07:42:21.028Z,23.40
2018-07-17T07:44:48.907Z,23.70
2018-07-17T07:47:16.761Z,23.60
2018-07-17T07:49:44.643Z,23.80
2018-07-17T07:52:12.506Z,23.80
2018-07-17T07:54:40.369Z,23.90
2018-07-17T07:57:08.503Z,24.00
2018-07-17T07:59:36.406Z,24.30
2018-07-17T08:02:05.367Z,24.50
2018-07-17T08:04:33.332Z,24.60
2018-07-17T08:07:02.299Z,24.50
2018-07-17T08:09:30.193Z,24.50
2018-07-17T08:11:58.081Z,24.40
2018-07-17T08:14:25.865Z,24.50
2018-07-17T08:16:53.699Z,24.70
2018-07-17T08:19:21.523Z,24.90
2018-07-17T08:21:49.494Z,25.30
2018-07-17T08:24:17.425Z,25.40
2018-07-17T08:26:45.335Z,25.20
2018-07-17T08:29:13.182Z,25.70
2018-07-17T08:31:41.057Z,26.00
2018-07-17T08:34:09.013Z,26.30
2018-07-17T08:36:36.911Z,26.10
2018-07-17T08:39:06.579Z,26.30
2018-07-17T08:41:34.406Z,26.30
2018-07-17T08:44:02.235Z,26.10
2018-07-17T08:46:30.091Z,25.90
2018-07-17T08:48:57.935Z,26.20
2018-07-17T08:51:25.807Z,26.50
2018-07-17T08:53:54.671Z,26.70
2018-07-17T08:56:23.482Z,26.60
2018-07-17T08:58:51.280Z,26.60
2018-07-17T09:01:19.279Z,26.60
2018-07-17T09:03:47.207Z,27.00
2018-07-17T09:06:15.120Z,27.40
2018-07-17T09:08:42.992Z,26.90
2018-07-17T09:11:10.887Z,26.50
2018-07-17T09:13:38.771Z,26.30
2018-07-17T09:16:06.610Z,26.40
2018-07-17T09:18:35.570Z,26.90
2018-07-17T09:21:04.531Z,27.20
2018-07-17T09:23:32.386Z,27.20
2018-07-17T09:26:00.236Z,27.30
2018-07-17T09:28:28.126Z,27.20
2018-07-17T09:31:00.804Z,27.20
2018-07-17T09:33:30.788Z,27.30
2018-07-17T09:35:59.278Z,27.30
2018-07-17T09:38:27.143Z,27.40
2018-07-17T09:40:54.958Z,27.60
2018-07-17T09:43:24.902Z,27.30
2018-07-17T09:45:52.776Z,27.00
2018-07-17T09:48:20.661Z,27.30
2018-07-17T09:50:48.529Z,27.50
2018-07-17T09:53:16.435Z,27.60
2018-07-17T09:55:44.260Z,27.40
2018-07-17T09:58:13.096Z,27.20
2018-07-17T10:00:46.526Z,27.50
2018-07-17T10:03:14.450Z,28.00
2018-07-17T10:05:42.375Z,28.00
2018-07-17T10:08:10.234Z,28.30
2018-07-17T10:10:38.117Z,28.10
2018-07-17T10:13:06.154Z,28.00
2018-07-17T10:15:35.149Z,27.80
2018-07-17T10:18:03.072Z,27.60
2018-07-17T10:20:30.981Z,27.60
2018-07-17T10:22:58.867Z,27.80
2018-07-17T10:25:28.756Z,28.00
2018-07-17T10:27:56.622Z,27.70
2018-07-17T10:30:24.545Z,28.30
2018-07-17T10:32:52.447Z,28.40
2018-07-17T10:35:20.265Z,28.80
2018-07-17T10:37:48.173Z,28.80
2018-07-17T10:40:16.032Z,28.60
2018-07-17T10:42:43.932Z,28.40
2018-07-17T10:45:11.775Z,28.00
2018-07-17T10:47:39.804Z,28.20
2018-07-17T10:50:07.764Z,28.30
2018-07-17T10:52:37.723Z,28.70
2018-07-17T10:55:05.614Z,28.90
2018-07-17T10:57:33.490Z,28.80
2018-07-17T11:00:01.436Z,28.70
2018-07-17T11:02:29.354Z,28.10
2018-07-17T11:04:58.292Z,28.10
2018-07-17T11:07:26.151Z,28.50
2018-07-17T11:09:53.997Z,29.00
2018-07-17T11:12:21.870Z,29.50
2018-07-17T11:14:49.695Z,29.70
2018-07-17T11:17:17.504Z,29.70
2018-07-17T11:19:45.349Z,29.60
2018-07-17T11:22:13.228Z,29.40
2018-07-17T11:24:41.079Z,29.60
2018-07-17T11:27:08.980Z,30.00
2018-07-17T11:29:36.950Z,30.20
2018-07-17T11:32:05.925Z,30.10
2018-07-17T11:34:33.869Z,30.20
2018-07-17T11:37:05.488Z,30.30
2018-07-17T11:39:33.360Z,30.20
2018-07-17T11:42:01.273Z,30.00
2018-07-17T11:44:29.407Z,30.00
2018-07-17T11:46:57.340Z,30.10
2018-07-17T11:49:25.191Z,29.40
2018-07-17T11:51:53.077Z,29.30
2018-07-17T11:54:20.966Z,29.30
2018-07-17T11:56:48.873Z,29.80
2018-07-17T11:59:18.773Z,29.80
2018-07-17T12:01:46.507Z,29.60
2018-07-17T12:04:15.335Z,29.70
2018-07-17T12:06:43.201Z,29.90
2018-07-17T12:09:11.058Z,30.10
2018-07-17T12:11:39.446Z,29.50
2018-07-17T12:14:07.310Z,29.00
2018-07-17T12:16:35.129Z,28.70
2018-07-17T12:19:04.071Z,28.20
2018-07-17T12:21:31.913Z,28.60
2018-07-17T12:24:00.792Z,29.20
2018-07-17T12:26:28.806Z,29.70
2018-07-17T12:28:56.669Z,29.60
2018-07-17T12:31:24.553Z,29.70
2018-07-17T12:33:52.537Z,29.70
2018-07-17T12:36:20.477Z,29.90
2018-07-17T12:38:48.296Z,29.60
2018-07-17T12:41:16.221Z,29.70
2018-07-17T12:43:44.120Z,29.90
2018-07-17T12:46:12.874Z,30.00
2018-07-17T12:48:40.717Z,29.90
2018-07-17T12:51:08.595Z,28.80
2018-07-17T12:53:36.519Z,28.50
2018-07-17T12:56:04.576Z,29.20
2018-07-17T12:58:32.406Z,30.00
2018-07-17T13:01:00.285Z,30.70
2018-07-17T13:03:28.081Z,30.30
2018-07-17T13:05:56.090Z,29.60
2018-07-17T13:08:23.980Z,28.10
2018-07-17T13:10:51.918Z,27.70
2018-07-17T13:13:19.827Z,28.20
2018-07-17T13:15:47.765Z,28.90
2018-07-17T13:18:15.621Z,29.50
2018-07-17T13:20:43.766Z,30.10
2018-07-17T13:23:11.724Z,30.00
2018-07-17T13:25:39.745Z,29.50
2018-07-17T13:28:07.715Z,29.50
2018-07-17T13:30:35.605Z,29.60
2018-07-17T13:33:03.542Z,29.90
2018-07-17T13:35:31.462Z,29.80
2018-07-17T13:37:59.334Z,29.90
2018-07-17T13:40:27.247Z,29.60
2018-07-17T13:42:55.178Z,29.90
2018-07-17T13:45:23.065Z,30.30
2018-07-17T13:47:50.997Z,30.10
2018-07-17T13:57:01.931Z,29.50
2018-07-17T13:59:29.838Z,29.20
2018-07-17T14:01:57.729Z,29.30
2018-07-17T14:04:25.591Z,29.70
2018-07-17T14:06:53.549Z,30.20
2018-07-17T14:09:21.319Z,30.10
2018-07-17T14:11:49.277Z,30.50
2018-07-17T14:14:17.117Z,30.40
2018-07-17T14:16:45.014Z,30.20
2018-07-17T14:19:12.819Z,30.10
2018-07-17T14:21:40.721Z,29.50
2018-07-17T14:24:08.514Z,29.90
2018-07-17T14:26:36.432Z,30.40
2018-07-17T14:29:04.478Z,30.60
2018-07-17T14:31:32.353Z,30.00
2018-07-17T14:34:00.242Z,29.60
2018-07-17T14:36:28.114Z,29.90
2018-07-17T14:38:56.015Z,30.70
2018-07-17T14:41:23.932Z,30.80
2018-07-17T14:43:51.782Z,30.20
2018-07-17T14:46:19.668Z,29.60
2018-07-17T14:48:47.544Z,29.40
2018-07-17T14:51:15.448Z,29.30
2018-07-17T14:53:44.349Z,29.20
2018-07-17T14:56:12.256Z,28.50
2018-07-17T14:58:40.186Z,27.80
2018-07-17T15:01:08.140Z,28.60
2018-07-17T15:03:36.021Z,29.30
2018-07-17T15:06:04.193Z,29.30
2018-07-17T15:08:32.163Z,29.70
2018-07-17T15:11:02.176Z,29.40
2018-07-17T15:13:30.050Z,28.90
2018-07-17T15:15:57.990Z,29.30
2018-07-17T15:18:25.869Z,29.50
2018-07-17T15:20:53.769Z,30.00
2018-07-17T15:23:21.616Z,29.50
2018-07-17T15:25:50.547Z,29.60
2018-07-17T15:28:18.420Z,29.80
2018-07-17T15:30:46.270Z,29.30
2018-07-17T15:33:14.173Z,28.80
2018-07-17T15:35:42.019Z,28.30
2018-07-17T15:38:09.898Z,27.80
2018-07-17T15:40:37.783Z,27.90
2018-07-17T15:43:06.224Z,28.80
2018-07-17T15:45:34.008Z,29.50
2018-07-17T15:48:02.362Z,29.90
2018-07-17T15:50:30.196Z,29.70
2018-07-17T15:52:58.039Z,29.90
2018-07-17T15:55:25.924Z,29.80
2018-07-17T15:57:53.804Z,30.20
2018-07-17T16:00:21.674Z,30.20
2018-07-17T16:02:49.542Z,29.90
2018-07-17T16:05:17.435Z,29.30
2018-07-17T16:07:45.319Z,28.60
2018-07-17T16:10:13.193Z,28.40
2018-07-17T16:12:41.069Z,28.40
2018-07-17T16:15:09.029Z,29.10
2018-07-17T16:17:36.895Z,28.80
2018-07-17T16:20:05.261Z,28.50
2018-07-17T16:23:35.796Z,28.10
2018-07-17T16:26:03.762Z,28.00
2018-07-17T16:28:31.510Z,27.80
2018-07-17T16:30:59.419Z,27.90
2018-07-17T16:33:27.313Z,28.30
2018-07-17T16:35:55.205Z,28.50
2018-07-17T16:38:23.054Z,29.10
2018-07-17T16:40:50.908Z,29.20
2018-07-17T16:43:18.865Z,29.40
2018-07-17T16:45:47.753Z,28.60
2018-07-17T16:48:15.757Z,28.20
2018-07-17T16:50:43.652Z,27.70
2018-07-17T16:53:11.581Z,27.80
2018-07-17T16:55:39.398Z,28.20
2018-07-17T16:58:07.200Z,27.80
2018-07-17T17:00:35.069Z,27.80
2018-07-17T17:03:02.910Z,28.00
2018-07-17T17:05:30.983Z,28.10
2018-07-17T17:07:59.887Z,27.80
2018-07-17T17:10:27.786Z,27.10
2018-07-17T17:12:55.746Z,26.60
2018-07-17T17:15:23.625Z,26.30
2018-07-17T17:17:51.545Z,26.10
2018-07-17T17:20:19.639Z,26.30
2018-07-17T17:22:47.640Z,26.50
2018-07-17T17:25:15.548Z,26.80
2018-07-17T17:27:43.368Z,26.80
2018-07-17T17:30:11.224Z,25.80
2018-07-17T17:32:39.129Z,24.60
2018-07-17T17:35:07.000Z,24.00
2018-07-17T17:37:35.907Z,23.70
2018-07-17T17:40:03.765Z,23.50
2018-07-17T17:42:31.500Z,23.30
2018-07-17T17:44:59.316Z,23.20
2018-07-17T17:47:27.224Z,23.10
2018-07-17T17:49:55.074Z,23.10
2018-07-17T17:52:22.907Z,23.00
2018-07-17T17:54:50.661Z,23.10
2018-07-17T17:57:18.470Z,23.00
2018-07-17T17:59:46.342Z,22.90
2018-07-17T18:02:14.228Z,22.80
2018-07-17T18:04:42.047Z,22.70
2018-07-17T18:07:09.855Z,22.60
2018-07-17T18:09:37.723Z,22.50
2018-07-17T18:12:05.737Z,22.50
2018-07-17T18:14:33.554Z,22.60
2018-07-17T18:17:01.382Z,22.70
2018-07-17T18:19:29.167Z,22.70
2018-07-17T18:21:57.008Z,22.70
2018-07-17T18:24:25.042Z,22.60
2018-07-17T18:26:53.102Z,22.50
2018-07-17T18:29:21.019Z,22.50
2018-07-17T18:31:48.933Z,22.50
2018-07-17T18:34:16.824Z,22.50
2018-07-17T18:36:45.696Z,22.40
2018-07-17T18:39:13.560Z,22.30
2018-07-17T18:41:41.675Z,22.30
2018-07-17T18:44:09.519Z,22.20
2018-07-17T18:46:37.426Z,22.30
2018-07-17T18:49:05.250Z,22.20
2018-07-17T18:51:33.082Z,22.20
2018-07-17T18:54:00.962Z,22.10
2018-07-17T18:56:28.826Z,22.00
2018-07-17T18:58:56.723Z,21.90
2018-07-17T19:01:24.608Z,21.70
2018-07-17T19:03:52.402Z,21.60
2018-07-17T19:06:20.253Z,21.50
2018-07-17T19:08:48.119Z,21.30
2018-07-17T19:11:16.032Z,21.20
2018-07-17T19:13:43.882Z,21.00
2018-07-17T19:16:11.749Z,20.80
2018-07-17T19:18:39.641Z,20.70
2018-07-17T19:21:07.479Z,20.50
2018-07-17T19:23:35.435Z,20.40
2018-07-17T19:26:03.281Z,20.10
2018-07-17T19:28:31.224Z,19.90
2018-07-17T19:30:59.098Z,19.80
2018-07-17T19:33:27.053Z,19.70
2018-07-17T19:35:55.954Z,19.50
2018-07-17T19:38:23.917Z,19.40
2018-07-17T19:40:51.872Z,19.20
2018-07-17T19:43:19.784Z,19.10
2018-07-17T19:45:47.659Z,18.90
2018-07-17T19:48:15.597Z,18.80
2018-07-17T19:50:44.413Z,18.60
2018-07-17T19:53:12.329Z,18.50
2018-07-17T19:55:41.204Z,18.40
2018-07-17T19:58:09.153Z,18.20
2018-07-17T20:00:37.170Z,18.00
2018-07-17T20:03:05.176Z,17.80
2018-07-17T20:05:33.078Z,17.60
2018-07-17T20:08:00.978Z,17.50
2018-07-17T20:10:28.799Z,17.60
2018-07-17T20:12:56.635Z,17.60
2018-07-17T20:15:24.451Z,17.40
2018-07-17T20:17:52.274Z,17.40
2018-07-17T20:20:20.120Z,17.30
2018-07-17T20:22:47.957Z,17.30
2018-07-17T20:25:16.050Z,17.30
2018-07-17T20:27:43.898Z,17.20
2018-07-17T20:30:12.769Z,17.10
2018-07-17T20:32:40.625Z,17.00
2018-07-17T20:35:10.582Z,16.80
2018-07-17T20:37:38.488Z,16.60
2018-07-17T20:40:07.335Z,16.50
2018-07-17T20:42:35.134Z,16.50
2018-07-17T20:45:03.035Z,16.40
2018-07-17T20:47:30.863Z,16.20
2018-07-17T20:49:58.736Z,16.10
2018-07-17T20:52:26.719Z,16.00
2018-07-17T20:54:55.597Z,15.80
2018-07-17T20:57:23.451Z,15.60
2018-07-17T20:59:51.394Z,15.60
2018-07-17T21:02:19.193Z,15.50
2018-07-17T21:04:47.110Z,15.50
2018-07-17T21:07:16.068Z,15.40
2018-07-17T21:09:43.867Z,15.40
2018-07-17T21:12:11.724Z,15.50
2018-07-17T21:14:39.580Z,15.70
2018-07-17T21:17:07.344Z,15.70
2018-07-17T21:19:35.135Z,15.60
2018-07-17T21:22:02.960Z,15.40
2018-07-17T21:24:30.808Z,15.30
2018-07-17T21:26:58.667Z,15.10
2018-07-17T21:29:26.522Z,15.00
2018-07-17T21:31:56.410Z,14.90
2018-07-17T21:34:25.454Z,14.90
2018-07-17T21:36:53.270Z,14.80
2018-07-17T21:39:21.112Z,14.70
2018-07-17T21:41:48.917Z,14.50
2018-07-17T21:44:16.785Z,14.40
2018-07-17T21:46:44.588Z,14.30
2018-07-17T21:49:12.412Z,14.10
2018-07-17T21:51:40.212Z,14.00
2018-07-17T21:54:08.007Z,14.00
2018-07-17T21:56:36.775Z,13.90
2018-07-17T21:59:04.668Z,13.90
2018-07-17T22:01:32.492Z,14.00
2018-07-17T22:04:01.318Z,14.10
2018-07-17T22:06:29.125Z,14.20
2018-07-17T22:08:56.945Z,14.20
2018-07-17T22:11:24.776Z,14.30
2018-07-17T22:13:52.633Z,14.40
2018-07-17T22:16:20.459Z,14.40
2018-07-17T22:18:48.297Z,14.40
2018-07-17T22:21:16.077Z,14.30
2018-07-17T22:23:43.839Z,14.30
2018-07-17T22:26:11.670Z,14.30
2018-07-17T22:28:39.495Z,14.40
2018-07-17T22:31:07.337Z,14.40
2018-07-17T22:33:35.166Z,14.40
2018-07-17T22:36:03.023Z,14.40
2018-07-17T22:38:30.856Z,14.40
2018-07-17T22:40:58.709Z,14.40
2018-07-17T22:43:26.559Z,14.30
2018-07-17T22:45:54.449Z,14.30
2018-07-17T22:48:22.236Z,14.10
2018-07-17T22:50:50.136Z,14.00
2018-07-17T22:53:17.915Z,13.90
2018-07-17T22:55:45.729Z,13.80
2018-07-17T22:58:13.583Z,13.60
2018-07-17T23:00:41.425Z,13.50
2018-07-17T23:03:09.326Z,13.50
2018-07-17T23:05:37.272Z,13.40
2018-07-17T23:08:05.239Z,13.40
2018-07-17T23:10:33.018Z,13.30
2018-07-17T23:13:01.874Z,13.20
2018-07-17T23:15:29.744Z,13.10
2018-07-17T23:17:58.627Z,13.00
2018-07-17T23:20:26.463Z,12.90
2018-07-17T23:22:55.558Z,12.90
2018-07-17T23:25:24.487Z,12.90
2018-07-17T23:27:52.549Z,13.00
2018-07-17T23:30:20.445Z,12.90
2018-07-17T23:32:49.548Z,12.80
2018-07-17T23:35:18.070Z,12.70
2018-07-17T23:37:45.955Z,12.60
2018-07-17T23:40:15.106Z,12.70
2018-07-17T23:42:42.995Z,12.80
2018-07-17T23:45:11.026Z,12.70
2018-07-17T23:47:38.937Z,12.60
2018-07-17T23:50:06.859Z,12.50
2018-07-17T23:52:34.727Z,12.40
2018-07-17T23:55:02.783Z,12.40
2018-07-17T23:57:30.647Z,12.30
